createdAt,value
2019-03-01T00:01:16.277Z,-0.50
2019-03-01T00:03:44.735Z,-0.40
2019-03-01T00:06:41.580Z,-0.40
2019-03-01T00:09:50.294Z,-0.40
2019-03-01T00:12:53.695Z,-0.40
2019-03-01T00:15:46.532Z,-0.40
2019-03-01T00:19:11.366Z,-0.40
2019-03-01T00:22:11.331Z,-0.50
2019-03-01T00:25:05.168Z,-0.50
2019-03-01T00:28:06.906Z,-0.40
2019-03-01T00:31:10.252Z,-0.40
2019-03-01T00:34:16.954Z,-0.40
2019-03-01T00:37:22.602Z,-0.40
2019-03-01T00:40:22.415Z,-0.40
2019-03-01T00:43:50.366Z,-0.30
2019-03-01T00:46:18.207Z,-0.30
2019-03-01T00:48:46.030Z,-0.30
2019-03-01T00:51:13.916Z,-0.20
2019-03-01T00:53:41.899Z,-0.20
2019-03-01T00:56:09.765Z,-0.10
2019-03-01T00:58:37.695Z,-0.10
2019-03-01T01:01:05.805Z,0.00
2019-03-01T01:03:33.700Z,0.00
2019-03-01T01:06:01.539Z,0.00
2019-03-01T01:08:29.362Z,0.00
2019-03-01T01:10:57.582Z,0.00
2019-03-01T01:13:25.375Z,0.00
2019-03-01T01:15:54.729Z,0.00
2019-03-01T01:18:22.595Z,0.00
2019-03-01T01:20:51.160Z,0.00
2019-03-01T01:23:19.000Z,0.10
2019-03-01T01:25:46.890Z,0.10
2019-03-01T01:28:14.707Z,0.20
2019-03-01T01:30:43.019Z,0.20
2019-03-01T01:33:10.883Z,0.20
2019-03-01T01:35:38.806Z,0.20
2019-03-01T01:38:06.653Z,0.20
2019-03-01T01:40:34.488Z,0.20
2019-03-01T01:43:02.384Z,0.20
2019-03-01T01:45:30.239Z,0.20
2019-03-01T01:47:58.118Z,0.20
2019-03-01T01:50:25.976Z,0.20
2019-03-01T01:52:53.808Z,0.20
2019-03-01T01:55:21.670Z,0.20
2019-03-01T01:57:49.483Z,0.20
2019-03-01T02:00:17.631Z,0.20
2019-03-01T02:02:45.526Z,0.30
2019-03-01T02:05:13.330Z,0.30
2019-03-01T02:07:41.305Z,0.30
2019-03-01T02:10:09.630Z,0.30
2019-03-01T02:12:37.429Z,0.30
2019-03-01T02:15:07.291Z,0.30
2019-03-01T02:17:35.090Z,0.30
2019-03-01T02:20:03.576Z,0.30
2019-03-01T02:22:31.454Z,0.40
2019-03-01T02:24:59.239Z,0.40
2019-03-01T02:27:28.690Z,0.40
2019-03-01T02:29:57.256Z,0.50
2019-03-01T02:32:31.806Z,0.50
2019-03-01T02:34:59.637Z,0.50
2019-03-01T02:37:27.524Z,0.50
2019-03-01T02:39:55.346Z,0.50
2019-03-01T02:42:23.115Z,0.50
2019-03-01T02:44:51.001Z,0.50
2019-03-01T02:47:18.819Z,0.60
2019-03-01T02:49:46.597Z,0.60
2019-03-01T02:52:14.505Z,0.50
2019-03-01T02:54:42.408Z,0.50
2019-03-01T02:57:10.217Z,0.50
2019-03-01T02:59:38.092Z,0.50
2019-03-01T03:02:05.884Z,0.50
2019-03-01T03:04:33.688Z,0.50
2019-03-01T03:07:09.048Z,0.50
2019-03-01T03:09:36.863Z,0.50
2019-03-01T03:12:04.729Z,0.50
2019-03-01T03:14:32.537Z,0.40
2019-03-01T03:17:00.330Z,0.40
2019-03-01T03:19:28.148Z,0.40
2019-03-01T03:21:55.954Z,0.40
2019-03-01T03:24:23.789Z,0.40
2019-03-01T03:26:51.645Z,0.40
2019-03-01T03:29:19.392Z,0.40
2019-03-01T03:31:47.280Z,0.40
2019-03-01T03:34:15.090Z,0.40
2019-03-01T03:37:02.352Z,0.40
2019-03-01T03:39:30.186Z,0.60
2019-03-01T03:41:57.969Z,0.40
2019-03-01T03:44:25.904Z,0.40
2019-03-01T03:46:54.089Z,0.40
2019-03-01T03:49:21.975Z,0.40
2019-03-01T03:51:49.819Z,0.40
2019-03-01T03:54:17.627Z,0.40
2019-03-01T03:56:45.481Z,0.40
2019-03-01T03:59:13.388Z,0.30
2019-03-01T04:01:41.550Z,0.30
2019-03-01T04:04:09.570Z,0.30
2019-03-01T04:06:37.407Z,0.30
2019-03-01T04:09:06.142Z,0.30
2019-03-01T04:11:34.031Z,0.40
2019-03-01T04:14:02.162Z,0.40
2019-03-01T04:16:30.013Z,0.40
2019-03-01T04:18:57.905Z,0.40
2019-03-01T04:21:25.845Z,0.50
2019-03-01T04:23:53.676Z,0.50
2019-03-01T04:26:21.579Z,0.50
2019-03-01T04:28:49.397Z,0.40
2019-03-01T04:31:17.216Z,0.40
2019-03-01T04:33:45.123Z,0.50
2019-03-01T04:36:13.397Z,0.50
2019-03-01T04:38:41.399Z,0.50
2019-03-01T04:41:09.715Z,0.50
2019-03-01T04:43:37.502Z,0.50
2019-03-01T04:46:05.301Z,0.50
2019-03-01T04:48:33.189Z,0.60
2019-03-01T04:51:00.980Z,0.60
2019-03-01T04:53:28.802Z,0.60
2019-03-01T04:55:56.654Z,0.70
2019-03-01T04:58:24.444Z,0.60
2019-03-01T05:00:52.277Z,0.70
2019-03-01T05:03:20.118Z,0.60
2019-03-01T05:05:47.927Z,0.60
2019-03-01T05:08:15.720Z,0.60
2019-03-01T05:10:43.556Z,0.50
2019-03-01T05:13:11.420Z,0.50
2019-03-01T05:15:39.320Z,0.50
2019-03-01T05:18:07.110Z,0.60
2019-03-01T05:20:34.927Z,0.60
2019-03-01T05:23:02.765Z,0.60
2019-03-01T05:25:30.593Z,0.70
2019-03-01T05:27:58.413Z,0.60
2019-03-01T05:30:26.591Z,0.60
2019-03-01T05:32:54.388Z,0.60
2019-03-01T05:35:22.259Z,0.60
2019-03-01T05:37:50.055Z,0.60
2019-03-01T05:40:17.907Z,0.60
2019-03-01T05:42:45.774Z,0.50
2019-03-01T05:45:18.950Z,0.50
2019-03-01T05:47:46.749Z,0.50
2019-03-01T05:50:14.717Z,0.40
2019-03-01T05:52:42.619Z,0.40
2019-03-01T05:55:10.581Z,0.40
2019-03-01T05:58:16.737Z,0.50
2019-03-01T06:00:44.788Z,0.40
2019-03-01T06:03:50.103Z,0.40
2019-03-01T06:06:21.322Z,0.40
2019-03-01T06:09:12.398Z,0.50
2019-03-01T06:11:57.002Z,0.50
2019-03-01T06:14:47.846Z,0.50
2019-03-01T06:17:49.233Z,0.50
2019-03-01T06:20:50.707Z,0.50
2019-03-01T06:23:27.460Z,0.50
2019-03-01T06:26:45.731Z,0.50
2019-03-01T06:29:26.958Z,0.60
2019-03-01T06:32:06.533Z,0.90
2019-03-01T06:35:49.329Z,0.70
2019-03-01T06:39:33.790Z,0.70
2019-03-01T06:42:51.692Z,0.70
2019-03-01T06:45:27.701Z,0.70
2019-03-01T06:47:55.619Z,0.70
2019-03-01T06:50:48.497Z,0.70
2019-03-01T06:53:16.364Z,0.80
2019-03-01T06:55:45.676Z,0.70
2019-03-01T06:58:19.363Z,0.70
2019-03-01T07:00:50.361Z,0.70
2019-03-01T07:03:18.485Z,0.70
2019-03-01T07:05:46.371Z,0.70
2019-03-01T07:08:14.169Z,0.60
2019-03-01T07:10:42.007Z,0.70
2019-03-01T07:13:09.908Z,0.70
2019-03-01T07:15:37.705Z,0.80
2019-03-01T07:18:05.514Z,0.80
2019-03-01T07:20:33.327Z,0.80
2019-03-01T07:23:01.186Z,0.90
2019-03-01T07:25:28.985Z,1.00
2019-03-01T07:27:56.773Z,1.00
2019-03-01T07:30:24.655Z,0.90
2019-03-01T07:32:52.527Z,0.80
2019-03-01T07:35:20.334Z,0.80
2019-03-01T07:37:48.229Z,0.80
2019-03-01T07:40:16.033Z,0.70
2019-03-01T07:42:43.825Z,0.70
2019-03-01T07:45:11.923Z,0.70
2019-03-01T07:47:39.736Z,0.60
2019-03-01T07:50:08.160Z,0.70
2019-03-01T07:52:35.981Z,0.70
2019-03-01T07:55:04.565Z,0.70
2019-03-01T07:57:32.381Z,0.80
2019-03-01T08:00:00.354Z,0.90
2019-03-01T08:02:28.182Z,1.00
2019-03-01T08:04:56.007Z,1.00
2019-03-01T08:07:24.303Z,0.90
2019-03-01T08:09:54.138Z,0.80
2019-03-01T08:12:22.119Z,0.90
2019-03-01T08:14:49.917Z,1.00
2019-03-01T08:17:17.963Z,1.10
2019-03-01T08:19:45.809Z,1.00
2019-03-01T08:22:13.654Z,1.10
2019-03-01T08:24:42.742Z,1.20
2019-03-01T08:27:11.379Z,1.20
2019-03-01T08:29:40.546Z,1.20
2019-03-01T08:32:08.707Z,1.30
2019-03-01T08:34:36.562Z,1.30
2019-03-01T08:37:04.419Z,1.30
2019-03-01T08:39:32.283Z,1.30
2019-03-01T08:42:01.352Z,1.40
2019-03-01T08:44:29.313Z,1.40
2019-03-01T08:46:57.132Z,1.40
2019-03-01T08:49:25.005Z,1.40
2019-03-01T08:51:52.807Z,1.50
2019-03-01T08:54:22.997Z,1.50
2019-03-01T08:56:51.146Z,1.50
2019-03-01T08:59:19.199Z,1.60
2019-03-01T09:01:46.978Z,1.60
2019-03-01T09:04:17.678Z,1.70
2019-03-01T09:06:44.450Z,1.60
2019-03-01T09:09:12.417Z,1.60
2019-03-01T09:11:41.751Z,1.70
2019-03-01T09:14:09.887Z,1.80
2019-03-01T09:16:37.714Z,1.90
2019-03-01T09:19:05.589Z,1.90
2019-03-01T09:21:33.419Z,2.00
2019-03-01T09:24:01.228Z,2.10
2019-03-01T09:26:29.092Z,2.20
2019-03-01T09:28:56.901Z,2.20
2019-03-01T09:31:24.724Z,2.30
2019-03-01T09:33:53.782Z,2.40
2019-03-01T09:36:31.833Z,2.40
2019-03-01T09:38:59.717Z,2.40
2019-03-01T09:41:27.571Z,2.40
2019-03-01T09:43:55.695Z,2.50
2019-03-01T09:46:24.725Z,2.50
2019-03-01T09:48:53.124Z,2.30
2019-03-01T09:51:20.984Z,2.20
2019-03-01T09:53:48.793Z,2.20
2019-03-01T09:56:16.589Z,2.30
2019-03-01T09:58:44.502Z,2.40
2019-03-01T10:01:16.540Z,2.40
2019-03-01T10:03:44.770Z,2.50
2019-03-01T10:06:12.640Z,2.50
2019-03-01T10:08:40.428Z,2.50
2019-03-01T10:11:08.232Z,2.40
2019-03-01T10:16:03.978Z,2.30
2019-03-01T10:18:31.772Z,2.30
2019-03-01T10:20:59.695Z,2.30
2019-03-01T10:23:27.507Z,2.30
2019-03-01T10:25:55.307Z,2.50
2019-03-01T10:28:23.137Z,2.50
2019-03-01T10:30:50.947Z,2.60
2019-03-01T10:33:18.749Z,2.60
2019-03-01T10:35:46.638Z,2.70
2019-03-01T10:38:14.452Z,2.70
2019-03-01T10:40:42.295Z,2.70
2019-03-01T10:43:10.149Z,2.70
2019-03-01T10:45:38.035Z,2.80
2019-03-01T10:48:05.813Z,2.90
2019-03-01T10:50:33.634Z,3.00
2019-03-01T10:53:01.486Z,2.90
2019-03-01T10:55:30.556Z,2.90
2019-03-01T10:57:58.411Z,3.00
2019-03-01T11:00:26.633Z,3.00
2019-03-01T11:02:54.521Z,2.90
2019-03-01T11:05:24.860Z,3.00
2019-03-01T11:07:53.065Z,3.10
2019-03-01T11:10:31.004Z,3.10
2019-03-01T11:12:58.916Z,3.00
2019-03-01T11:15:26.847Z,3.10
2019-03-01T11:17:54.682Z,3.20
2019-03-01T11:20:22.859Z,3.30
2019-03-01T11:22:52.780Z,3.40
2019-03-01T11:25:21.198Z,3.40
2019-03-01T11:27:49.389Z,3.40
2019-03-01T11:30:19.444Z,3.50
2019-03-01T11:32:47.291Z,3.50
2019-03-01T11:35:18.085Z,3.60
2019-03-01T11:37:45.978Z,3.80
2019-03-01T11:40:16.302Z,3.70
2019-03-01T11:42:44.089Z,3.70
2019-03-01T11:45:12.342Z,3.80
2019-03-01T11:47:40.173Z,3.90
2019-03-01T11:50:10.678Z,3.90
2019-03-01T11:52:39.702Z,3.90
2019-03-01T11:55:07.748Z,4.00
2019-03-01T11:57:35.581Z,4.00
2019-03-01T12:00:04.343Z,4.10
2019-03-01T12:02:32.178Z,4.20
2019-03-01T12:05:00.003Z,4.30
2019-03-01T12:07:28.026Z,4.10
2019-03-01T12:09:55.839Z,4.30
2019-03-01T12:12:23.753Z,4.40
2019-03-01T12:14:51.584Z,4.30
2019-03-01T12:17:19.423Z,4.30
2019-03-01T12:19:47.268Z,4.40
2019-03-01T12:22:17.468Z,4.50
2019-03-01T12:24:44.743Z,4.60
2019-03-01T12:27:12.547Z,4.60
2019-03-01T12:29:40.398Z,4.50
2019-03-01T12:32:08.233Z,4.60
2019-03-01T12:34:36.081Z,4.60
2019-03-01T12:37:03.973Z,4.60
2019-03-01T12:39:32.070Z,4.60
2019-03-01T12:41:59.915Z,4.70
2019-03-01T12:44:27.741Z,4.80
2019-03-01T12:46:55.839Z,4.80
2019-03-01T12:49:23.684Z,4.80
2019-03-01T12:51:51.567Z,4.90
2019-03-01T12:54:19.342Z,4.80
2019-03-01T12:56:47.144Z,4.80
2019-03-01T12:59:14.995Z,4.70
2019-03-01T13:01:42.767Z,4.70
2019-03-01T13:04:10.604Z,4.70
2019-03-01T13:06:39.750Z,4.70
2019-03-01T13:09:13.251Z,4.80
2019-03-01T13:11:41.125Z,4.80
2019-03-01T13:14:08.919Z,4.70
2019-03-01T13:16:36.735Z,4.70
2019-03-01T13:19:04.596Z,4.80
2019-03-01T13:21:34.756Z,4.90
2019-03-01T13:24:02.624Z,5.00
2019-03-01T13:26:30.432Z,5.00
2019-03-01T13:28:58.229Z,5.00
2019-03-01T13:31:26.069Z,5.00
2019-03-01T13:33:53.971Z,5.20
2019-03-01T13:36:21.782Z,5.30
2019-03-01T13:38:49.604Z,5.10
2019-03-01T13:41:17.440Z,5.20
2019-03-01T13:43:45.236Z,5.20
2019-03-01T13:46:13.145Z,5.30
2019-03-01T13:48:40.961Z,5.30
2019-03-01T13:51:08.794Z,5.40
2019-03-01T13:53:36.680Z,5.50
2019-03-01T13:56:05.000Z,5.50
2019-03-01T13:58:32.958Z,5.50
2019-03-01T14:01:00.961Z,5.40
2019-03-01T14:03:28.837Z,5.60
2019-03-01T14:05:56.717Z,5.70
2019-03-01T14:08:26.528Z,5.70
2019-03-01T14:10:54.582Z,5.70
2019-03-01T14:13:22.583Z,5.60
2019-03-01T14:15:50.614Z,5.60
2019-03-01T14:18:18.491Z,5.60
2019-03-01T14:20:46.413Z,5.60
2019-03-01T14:23:14.242Z,5.50
2019-03-01T14:25:43.007Z,5.50
2019-03-01T14:28:11.409Z,5.50
2019-03-01T14:30:39.218Z,5.50
2019-03-01T14:33:07.049Z,5.50
2019-03-01T14:35:35.048Z,5.60
2019-03-01T14:38:02.978Z,5.70
2019-03-01T14:40:30.833Z,5.70
2019-03-01T14:42:58.872Z,5.80
2019-03-01T14:45:26.769Z,5.60
2019-03-01T14:47:54.746Z,5.70
2019-03-01T14:50:24.249Z,5.60
2019-03-01T14:52:56.651Z,5.50
2019-03-01T14:55:27.847Z,5.50
2019-03-01T14:58:11.729Z,5.40
2019-03-01T15:00:49.879Z,5.40
2019-03-01T15:03:33.996Z,5.50
2019-03-01T15:06:02.216Z,5.50
2019-03-01T15:08:30.241Z,5.50
2019-03-01T15:11:07.993Z,5.40
2019-03-01T15:13:36.724Z,5.40
2019-03-01T15:16:05.947Z,5.50
2019-03-01T15:18:34.416Z,5.50
2019-03-01T15:21:02.812Z,5.50
2019-03-01T15:23:31.128Z,5.40
2019-03-01T15:25:58.986Z,5.50
2019-03-01T15:28:26.831Z,5.50
2019-03-01T15:30:54.648Z,5.50
2019-03-01T15:33:22.592Z,5.40
2019-03-01T15:35:50.416Z,5.30
2019-03-01T15:38:18.344Z,5.20
2019-03-01T15:40:46.171Z,5.20
2019-03-01T15:43:14.083Z,5.10
2019-03-01T15:45:44.859Z,5.20
2019-03-01T15:48:12.873Z,5.00
2019-03-01T15:50:40.733Z,4.90
2019-03-01T15:53:08.681Z,4.90
2019-03-01T15:55:36.501Z,4.90
2019-03-01T15:58:04.338Z,4.90
2019-03-01T16:00:32.408Z,4.90
2019-03-01T16:03:00.217Z,4.80
2019-03-01T16:05:28.040Z,4.80
2019-03-01T16:07:55.982Z,4.80
2019-03-01T16:10:23.844Z,4.70
2019-03-01T16:12:51.687Z,4.60
2019-03-01T16:15:19.542Z,4.50
2019-03-01T16:17:47.352Z,4.30
2019-03-01T16:20:15.827Z,4.20
2019-03-01T16:22:43.785Z,4.10
2019-03-01T16:25:12.471Z,4.00
2019-03-01T16:27:40.262Z,3.90
2019-03-01T16:30:10.482Z,3.80
2019-03-01T16:32:40.859Z,3.70
2019-03-01T16:35:08.736Z,3.60
2019-03-01T16:37:37.780Z,3.60
2019-03-01T16:40:08.083Z,3.50
2019-03-01T16:42:38.690Z,3.40
2019-03-01T16:45:05.962Z,3.40
2019-03-01T16:47:33.765Z,3.30
2019-03-01T16:50:02.917Z,3.20
2019-03-01T16:52:31.317Z,3.20
2019-03-01T16:54:59.135Z,3.10
2019-03-01T16:57:27.149Z,3.00
2019-03-01T16:59:56.333Z,3.00
2019-03-01T17:02:24.206Z,3.00
2019-03-01T17:04:52.025Z,3.00
2019-03-01T17:07:21.486Z,2.90
2019-03-01T17:09:51.420Z,2.90
2019-03-01T17:12:20.198Z,3.00
2019-03-01T17:14:48.080Z,2.90
2019-03-01T17:17:15.895Z,2.90
2019-03-01T17:19:43.711Z,2.90
2019-03-01T17:22:11.537Z,2.90
2019-03-01T17:24:39.342Z,2.80
2019-03-01T17:27:07.241Z,2.70
2019-03-01T17:29:35.760Z,2.60
2019-03-01T17:32:04.660Z,2.60
2019-03-01T17:34:33.453Z,2.70
2019-03-01T17:37:01.256Z,2.70
2019-03-01T17:39:31.084Z,2.70
2019-03-01T17:41:58.962Z,2.80
2019-03-01T17:44:26.776Z,2.80
2019-03-01T17:46:54.578Z,2.80
2019-03-01T17:49:22.478Z,2.90
2019-03-01T17:51:53.341Z,2.90
2019-03-01T17:54:22.227Z,2.90
2019-03-01T17:56:49.569Z,3.00
2019-03-01T17:59:17.392Z,3.00
2019-03-01T18:01:45.265Z,3.00
2019-03-01T18:04:13.133Z,3.10
2019-03-01T18:06:40.937Z,3.10
2019-03-01T18:09:08.829Z,3.10
2019-03-01T18:11:36.615Z,3.10
2019-03-01T18:14:04.479Z,3.10
2019-03-01T18:16:32.360Z,3.00
2019-03-01T18:19:00.169Z,3.00
2019-03-01T18:21:27.958Z,3.10
2019-03-01T18:23:55.808Z,3.10
2019-03-01T18:26:23.587Z,3.00
2019-03-01T18:28:51.476Z,3.00
2019-03-01T18:31:19.265Z,3.00
2019-03-01T18:33:47.061Z,3.00
2019-03-01T18:36:14.946Z,3.00
2019-03-01T18:38:42.758Z,2.90
2019-03-01T18:41:11.205Z,2.90
2019-03-01T18:43:39.151Z,3.00
2019-03-01T18:46:07.038Z,2.90
2019-03-01T18:48:34.815Z,2.90
2019-03-01T18:51:03.466Z,2.90
2019-03-01T18:53:34.315Z,2.90
2019-03-01T18:56:02.120Z,2.90
2019-03-01T18:58:29.987Z,2.90
2019-03-01T19:00:57.791Z,2.90
2019-03-01T19:03:25.731Z,2.80
2019-03-01T19:05:53.747Z,2.70
2019-03-01T19:08:21.811Z,2.70
2019-03-01T19:10:54.286Z,2.70
2019-03-01T19:13:20.796Z,2.70
2019-03-01T19:15:54.458Z,2.60
2019-03-01T19:18:19.010Z,2.60
2019-03-01T19:20:47.217Z,2.50
2019-03-01T19:23:15.156Z,2.50
2019-03-01T19:25:43.010Z,2.40
2019-03-01T19:28:10.994Z,2.40
2019-03-01T19:30:38.955Z,2.40
2019-03-01T19:33:06.960Z,2.30
2019-03-01T19:35:36.000Z,2.20
2019-03-01T19:38:03.899Z,2.20
2019-03-01T19:40:31.769Z,2.20
2019-03-01T19:42:59.715Z,2.10
2019-03-01T19:45:27.690Z,2.10
2019-03-01T19:48:01.398Z,2.00
2019-03-01T19:50:26.026Z,2.10
2019-03-01T19:52:54.611Z,2.10
2019-03-01T19:55:22.532Z,2.10
2019-03-01T19:57:50.464Z,2.00
2019-03-01T20:00:19.847Z,1.90
2019-03-01T20:02:47.696Z,1.90
2019-03-01T20:05:17.164Z,1.90
2019-03-01T20:07:44.997Z,1.80
2019-03-01T20:10:15.186Z,1.70
2019-03-01T20:12:43.712Z,1.60
2019-03-01T20:15:14.431Z,1.60
2019-03-01T20:17:44.566Z,1.50
2019-03-01T20:20:13.228Z,1.40
2019-03-01T20:22:45.579Z,1.40
2019-03-01T20:25:16.203Z,1.40
2019-03-01T20:27:43.811Z,1.40
2019-03-01T20:30:16.921Z,1.40
2019-03-01T20:32:47.330Z,1.30
2019-03-01T20:35:14.753Z,1.30
2019-03-01T20:37:42.605Z,1.30
2019-03-01T20:40:10.462Z,1.20
2019-03-01T20:42:38.477Z,1.20
2019-03-01T20:45:09.440Z,1.20
2019-03-01T20:47:37.366Z,1.20
2019-03-01T20:50:05.427Z,1.10
2019-03-01T20:52:34.818Z,1.10
2019-03-01T20:55:02.916Z,1.10
2019-03-01T20:57:30.748Z,1.10
2019-03-01T21:00:01.727Z,1.10
2019-03-01T21:02:30.098Z,1.10
2019-03-01T21:04:57.941Z,1.10
2019-03-01T21:07:25.717Z,1.10
2019-03-01T21:09:53.581Z,1.00
2019-03-01T21:12:21.440Z,1.10
2019-03-01T21:14:49.294Z,1.00
2019-03-01T21:17:20.308Z,1.00
2019-03-01T21:19:46.829Z,1.00
2019-03-01T21:22:14.647Z,1.00
2019-03-01T21:24:42.457Z,0.90
2019-03-01T21:27:11.299Z,0.90
2019-03-01T21:29:39.212Z,0.90
2019-03-01T21:32:07.011Z,0.80
2019-03-01T21:34:38.070Z,0.80
2019-03-01T21:37:04.634Z,0.80
2019-03-01T21:39:32.454Z,0.80
2019-03-01T21:42:01.385Z,0.80
2019-03-01T21:44:29.315Z,0.80
2019-03-01T21:46:57.138Z,0.80
2019-03-01T21:49:24.952Z,0.80
2019-03-01T21:51:55.227Z,0.80
2019-03-01T21:54:22.507Z,0.70
2019-03-01T21:56:56.110Z,0.70
2019-03-01T21:59:19.880Z,0.70
2019-03-01T22:01:47.737Z,0.80
2019-03-01T22:04:15.545Z,0.80
2019-03-01T22:06:43.324Z,0.70
2019-03-01T22:09:11.833Z,0.70
2019-03-01T22:11:39.660Z,0.60
2019-03-01T22:14:07.531Z,0.60
2019-03-01T22:16:39.331Z,0.60
2019-03-01T22:19:08.614Z,0.50
2019-03-01T22:21:36.522Z,0.50
2019-03-01T22:24:04.422Z,0.50
2019-03-01T22:26:32.245Z,0.50
2019-03-01T22:29:00.051Z,0.40
2019-03-01T22:31:27.906Z,0.40
2019-03-01T22:33:56.061Z,0.40
2019-03-01T22:36:24.556Z,0.40
2019-03-01T22:38:52.364Z,0.30
2019-03-01T22:41:20.225Z,0.30
2019-03-01T22:43:48.035Z,0.20
2019-03-01T22:46:15.899Z,0.20
2019-03-01T22:48:46.966Z,0.20
2019-03-01T22:51:14.453Z,0.20
2019-03-01T22:53:43.259Z,0.20
2019-03-01T22:56:12.025Z,0.10
2019-03-01T22:58:40.691Z,0.10
2019-03-01T23:01:12.475Z,0.00
2019-03-01T23:03:40.982Z,0.00
2019-03-01T23:06:11.709Z,0.00
2019-03-01T23:08:38.424Z,-0.10
2019-03-01T23:11:06.433Z,-0.10
2019-03-01T23:13:34.238Z,-0.10
2019-03-01T23:16:02.260Z,-0.10
2019-03-01T23:18:30.077Z,-0.10
2019-03-01T23:21:01.066Z,-0.10
2019-03-01T23:23:27.856Z,-0.20
2019-03-01T23:25:55.671Z,-0.20
2019-03-01T23:28:23.458Z,-0.20
2019-03-01T23:30:51.356Z,-0.30
2019-03-01T23:33:19.125Z,-0.30
2019-03-01T23:35:49.633Z,-0.30
2019-03-01T23:38:16.588Z,-0.30
2019-03-01T23:40:44.389Z,-0.20
2019-03-01T23:43:12.298Z,-0.30
2019-03-01T23:45:42.361Z,-0.30
2019-03-01T23:48:10.632Z,-0.30
2019-03-01T23:50:39.437Z,-0.20
2019-03-01T23:53:07.210Z,-0.20
2019-03-01T23:55:35.203Z,-0.20
2019-03-01T23:58:06.015Z,-0.20
